sensor_id;sensor_type;location;lat;lon;timestamp;P1;durP1;ratioP1;P2;durP2;ratioP2
16308;SDS011;8263;48.880;9.276;2022-12-22T00:00:34;119.35;;;111.35;;
16308;SDS011;8263;48.880;9.276;2022-12-22T00:03:18;118.55;;;110.57;;
16308;SDS011;8263;48.880;9.276;2022-12-22T00:06:02;119.47;;;111.45;;
16308;SDS011;8263;48.880;9.276;2022-12-22T00:08:46;120.63;;;112.53;;
16308;SDS011;8263;48.880;9.276;2022-12-22T00:11:30;119.65;;;111.45;;
16308;SDS011;8263;48.880;9.276;2022-12-22T00:14:14;119.07;;;110.97;;
16308;SDS011;8263;48.880;9.276;2022-12-22T00:17:00;118.25;;;110.28;;
16308;SDS011;8263;48.880;9.276;2022-12-22T00:19:44;119.03;;;111.00;;
16308;SDS011;8263;48.880;9.276;2022-12-22T00:22:29;117.32;;;109.45;;
16308;SDS011;8263;48.880;9.276;2022-12-22T00:25:14;120.15;;;112.05;;
16308;SDS011;8263;48.880;9.276;2022-12-22T00:27:58;118.70;;;110.72;;
16308;SDS011;8263;48.880;9.276;2022-12-22T00:30:42;119.85;;;111.63;;
16308;SDS011;8263;48.880;9.276;2022-12-22T00:33:28;117.43;;;109.55;;
16308;SDS011;8263;48.880;9.276;2022-12-22T00:36:12;118.72;;;110.75;;
16308;SDS011;8263;48.880;9.276;2022-12-22T00:38:56;121.38;;;113.18;;
16308;SDS011;8263;48.880;9.276;2022-12-22T00:41:40;118.97;;;110.97;;
16308;SDS011;8263;48.880;9.276;2022-12-22T00:44:24;118.18;;;110.28;;
16308;SDS011;8263;48.880;9.276;2022-12-22T00:47:08;118.93;;;110.93;;
16308;SDS011;8263;48.880;9.276;2022-12-22T00:49:53;119.70;;;111.68;;
16308;SDS011;8263;48.880;9.276;2022-12-22T00:52:37;117.70;;;109.80;;
16308;SDS011;8263;48.880;9.276;2022-12-22T00:55:23;119.25;;;111.25;;
16308;SDS011;8263;48.880;9.276;2022-12-22T00:58:11;120.43;;;112.32;;
16308;SDS011;8263;48.880;9.276;2022-12-22T01:00:56;119.22;;;111.22;;
16308;SDS011;8263;48.880;9.276;2022-12-22T01:03:40;120.63;;;112.53;;
16308;SDS011;8263;48.880;9.276;2022-12-22T01:06:26;120.57;;;112.47;;
16308;SDS011;8263;48.880;9.276;2022-12-22T01:09:11;119.97;;;111.93;;
16308;SDS011;8263;48.880;9.276;2022-12-22T01:11:55;119.72;;;111.15;;
16308;SDS011;8263;48.880;9.276;2022-12-22T01:14:39;121.15;;;113.00;;
16308;SDS011;8263;48.880;9.276;2022-12-22T01:17:23;120.50;;;112.40;;
16308;SDS011;8263;48.880;9.276;2022-12-22T01:20:08;119.70;;;111.68;;
16308;SDS011;8263;48.880;9.276;2022-12-22T01:22:53;118.20;;;110.30;;
16308;SDS011;8263;48.880;9.276;2022-12-22T01:25:37;120.55;;;112.38;;
16308;SDS011;8263;48.880;9.276;2022-12-22T01:28:21;119.80;;;111.70;;
16308;SDS011;8263;48.880;9.276;2022-12-22T01:31:09;118.82;;;110.82;;
16308;SDS011;8263;48.880;9.276;2022-12-22T01:33:56;119.47;;;111.43;;
16308;SDS011;8263;48.880;9.276;2022-12-22T01:36:40;119.65;;;111.65;;
16308;SDS011;8263;48.880;9.276;2022-12-22T01:39:25;119.28;;;111.28;;
16308;SDS011;8263;48.880;9.276;2022-12-22T01:42:09;118.13;;;110.13;;
16308;SDS011;8263;48.880;9.276;2022-12-22T01:44:54;119.43;;;111.28;;
16308;SDS011;8263;48.880;9.276;2022-12-22T01:47:38;116.68;;;108.82;;
16308;SDS011;8263;48.880;9.276;2022-12-22T01:50:24;117.63;;;109.72;;
16308;SDS011;8263;48.880;9.276;2022-12-22T01:53:11;116.80;;;108.95;;
16308;SDS011;8263;48.880;9.276;2022-12-22T01:56:00;118.82;;;110.82;;
16308;SDS011;8263;48.880;9.276;2022-12-22T01:58:45;119.20;;;111.18;;
16308;SDS011;8263;48.880;9.276;2022-12-22T02:01:29;120.20;;;112.13;;
16308;SDS011;8263;48.880;9.276;2022-12-22T02:04:13;118.75;;;110.78;;
16308;SDS011;8263;48.880;9.276;2022-12-22T02:07:00;120.20;;;112.10;;
16308;SDS011;8263;48.880;9.276;2022-12-22T02:09:48;118.82;;;110.82;;
16308;SDS011;8263;48.880;9.276;2022-12-22T02:12:37;116.90;;;109.10;;
16308;SDS011;8263;48.880;9.276;2022-12-22T02:15:24;116.97;;;109.13;;
16308;SDS011;8263;48.880;9.276;2022-12-22T02:18:10;118.45;;;110.53;;
16308;SDS011;8263;48.880;9.276;2022-12-22T02:20:58;118.13;;;110.22;;
16308;SDS011;8263;48.880;9.276;2022-12-22T02:23:57;117.55;;;109.70;;
16308;SDS011;8263;48.880;9.276;2022-12-22T02:26:46;119.30;;;111.30;;
16308;SDS011;8263;48.880;9.276;2022-12-22T02:29:32;120.45;;;112.35;;
16308;SDS011;8263;48.880;9.276;2022-12-22T02:32:18;114.20;;;106.60;;
16308;SDS011;8263;48.880;9.276;2022-12-22T02:35:06;117.55;;;109.65;;
16308;SDS011;8263;48.880;9.276;2022-12-22T02:37:53;119.35;;;111.22;;
16308;SDS011;8263;48.880;9.276;2022-12-22T02:40:41;118.95;;;110.93;;
16308;SDS011;8263;48.880;9.276;2022-12-22T02:43:35;118.90;;;110.93;;
16308;SDS011;8263;48.880;9.276;2022-12-22T02:46:25;116.63;;;108.82;;
16308;SDS011;8263;48.880;9.276;2022-12-22T02:49:14;117.00;;;109.20;;
16308;SDS011;8263;48.880;9.276;2022-12-22T02:52:00;119.28;;;111.28;;
16308;SDS011;8263;48.880;9.276;2022-12-22T02:54:46;117.78;;;109.88;;
16308;SDS011;8263;48.880;9.276;2022-12-22T02:57:29;117.72;;;109.82;;
16308;SDS011;8263;48.880;9.276;2022-12-22T03:00:15;117.45;;;109.60;;
16308;SDS011;8263;48.880;9.276;2022-12-22T03:02:59;118.25;;;110.32;;
16308;SDS011;8263;48.880;9.276;2022-12-22T03:05:43;115.43;;;107.72;;
16308;SDS011;8263;48.880;9.276;2022-12-22T03:08:27;118.72;;;110.80;;
16308;SDS011;8263;48.880;9.276;2022-12-22T03:11:11;118.38;;;110.43;;
16308;SDS011;8263;48.880;9.276;2022-12-22T03:13:55;120.35;;;112.18;;
16308;SDS011;8263;48.880;9.276;2022-12-22T03:16:41;116.63;;;108.85;;
16308;SDS011;8263;48.880;9.276;2022-12-22T03:19:24;118.35;;;110.45;;
16308;SDS011;8263;48.880;9.276;2022-12-22T03:22:08;118.65;;;110.68;;
16308;SDS011;8263;48.880;9.276;2022-12-22T03:24:52;119.15;;;111.15;;
16308;SDS011;8263;48.880;9.276;2022-12-22T03:27:36;117.10;;;109.30;;
16308;SDS011;8263;48.880;9.276;2022-12-22T03:30:03;118.50;;;110.57;;
16308;SDS011;8263;48.880;9.276;2022-12-22T03:32:31;117.15;;;109.35;;
16308;SDS011;8263;48.880;9.276;2022-12-22T03:34:57;118.82;;;110.90;;
16308;SDS011;8263;48.880;9.276;2022-12-22T03:37:24;117.35;;;109.55;;
16308;SDS011;8263;48.880;9.276;2022-12-22T03:39:50;118.32;;;110.43;;
16308;SDS011;8263;48.880;9.276;2022-12-22T03:42:17;116.78;;;108.97;;
16308;SDS011;8263;48.880;9.276;2022-12-22T03:45:01;117.45;;;109.63;;
16308;SDS011;8263;48.880;9.276;2022-12-22T03:47:47;118.38;;;110.47;;
16308;SDS011;8263;48.880;9.276;2022-12-22T03:50:13;116.85;;;109.05;;
16308;SDS011;8263;48.880;9.276;2022-12-22T03:52:40;116.63;;;108.82;;
16308;SDS011;8263;48.880;9.276;2022-12-22T03:55:07;117.25;;;109.45;;
16308;SDS011;8263;48.880;9.276;2022-12-22T03:57:33;117.07;;;109.20;;
16308;SDS011;8263;48.880;9.276;2022-12-22T04:00:00;113.78;;;106.22;;
16308;SDS011;8263;48.880;9.276;2022-12-22T04:02:26;115.10;;;107.47;;
16308;SDS011;8263;48.880;9.276;2022-12-22T04:04:54;116.82;;;109.03;;
16308;SDS011;8263;48.880;9.276;2022-12-22T04:07:20;115.65;;;107.95;;
16308;SDS011;8263;48.880;9.276;2022-12-22T04:09:47;116.85;;;109.05;;
16308;SDS011;8263;48.880;9.276;2022-12-22T04:12:27;114.82;;;107.20;;
16308;SDS011;8263;48.880;9.276;2022-12-22T04:15:11;116.13;;;108.43;;
16308;SDS011;8263;48.880;9.276;2022-12-22T04:17:38;118.80;;;110.88;;
16308;SDS011;8263;48.880;9.276;2022-12-22T04:20:07;116.50;;;108.75;;
16308;SDS011;8263;48.880;9.276;2022-12-22T04:22:34;117.32;;;109.53;;
16308;SDS011;8263;48.880;9.276;2022-12-22T04:25:00;115.38;;;107.70;;
16308;SDS011;8263;48.880;9.276;2022-12-22T04:27:27;119.65;;;111.65;;
16308;SDS011;8263;48.880;9.276;2022-12-22T04:29:53;116.18;;;108.07;;
16308;SDS011;8263;48.880;9.276;2022-12-22T04:32:20;114.20;;;106.60;;
16308;SDS011;8263;48.880;9.276;2022-12-22T04:34:47;115.93;;;108.22;;
16308;SDS011;8263;48.880;9.276;2022-12-22T04:37:15;115.63;;;107.88;;
16308;SDS011;8263;48.880;9.276;2022-12-22T04:39:41;115.95;;;108.25;;
16308;SDS011;8263;48.880;9.276;2022-12-22T04:42:08;117.88;;;109.97;;
16308;SDS011;8263;48.880;9.276;2022-12-22T04:44:34;116.20;;;108.50;;
16308;SDS011;8263;48.880;9.276;2022-12-22T04:47:01;116.53;;;108.75;;
16308;SDS011;8263;48.880;9.276;2022-12-22T04:49:27;114.68;;;107.07;;
16308;SDS011;8263;48.880;9.276;2022-12-22T04:51:54;116.35;;;108.65;;
16308;SDS011;8263;48.880;9.276;2022-12-22T04:54:22;115.38;;;107.72;;
16308;SDS011;8263;48.880;9.276;2022-12-22T04:56:49;115.90;;;108.20;;
16308;SDS011;8263;48.880;9.276;2022-12-22T04:59:15;114.82;;;107.22;;
16308;SDS011;8263;48.880;9.276;2022-12-22T05:01:42;116.13;;;108.35;;
16308;SDS011;8263;48.880;9.276;2022-12-22T05:04:08;114.80;;;107.20;;
16308;SDS011;8263;48.880;9.276;2022-12-22T05:06:35;115.55;;;107.65;;
16308;SDS011;8263;48.880;9.276;2022-12-22T05:09:02;114.85;;;107.25;;
16308;SDS011;8263;48.880;9.276;2022-12-22T05:11:30;114.90;;;107.20;;
16308;SDS011;8263;48.880;9.276;2022-12-22T05:13:56;114.88;;;107.25;;
16308;SDS011;8263;48.880;9.276;2022-12-22T05:16:23;116.60;;;108.88;;
16308;SDS011;8263;48.880;9.276;2022-12-22T05:18:49;114.53;;;106.93;;
16308;SDS011;8263;48.880;9.276;2022-12-22T05:21:16;114.13;;;106.53;;
16308;SDS011;8263;48.880;9.276;2022-12-22T05:23:43;115.68;;;107.97;;
16308;SDS011;8263;48.880;9.276;2022-12-22T05:26:10;114.15;;;106.55;;
16308;SDS011;8263;48.880;9.276;2022-12-22T05:28:40;114.38;;;106.78;;
16308;SDS011;8263;48.880;9.276;2022-12-22T05:31:07;116.90;;;109.10;;
16308;SDS011;8263;48.880;9.276;2022-12-22T05:33:34;114.93;;;107.30;;
16308;SDS011;8263;48.880;9.276;2022-12-22T05:36:01;116.97;;;109.18;;
16308;SDS011;8263;48.880;9.276;2022-12-22T05:38:27;115.72;;;108.03;;
16308;SDS011;8263;48.880;9.276;2022-12-22T05:40:54;116.65;;;108.60;;
16308;SDS011;8263;48.880;9.276;2022-12-22T05:43:20;114.88;;;107.28;;
16308;SDS011;8263;48.880;9.276;2022-12-22T05:45:48;116.18;;;108.47;;
16308;SDS011;8263;48.880;9.276;2022-12-22T05:48:15;116.85;;;109.05;;
16308;SDS011;8263;48.880;9.276;2022-12-22T05:50:41;113.50;;;106.00;;
16308;SDS011;8263;48.880;9.276;2022-12-22T05:53:08;114.30;;;106.63;;
16308;SDS011;8263;48.880;9.276;2022-12-22T05:55:34;116.47;;;108.70;;
16308;SDS011;8263;48.880;9.276;2022-12-22T05:58:01;115.22;;;107.57;;
16308;SDS011;8263;48.880;9.276;2022-12-22T06:00:28;115.50;;;107.80;;
16308;SDS011;8263;48.880;9.276;2022-12-22T06:02:56;113.60;;;106.10;;
16308;SDS011;8263;48.880;9.276;2022-12-22T06:05:23;115.28;;;107.57;;
16308;SDS011;8263;48.880;9.276;2022-12-22T06:07:50;115.47;;;107.68;;
16308;SDS011;8263;48.880;9.276;2022-12-22T06:10:17;117.00;;;108.35;;
16308;SDS011;8263;48.880;9.276;2022-12-22T06:12:44;115.00;;;107.40;;
16308;SDS011;8263;48.880;9.276;2022-12-22T06:15:11;113.97;;;106.40;;
16308;SDS011;8263;48.880;9.276;2022-12-22T06:17:38;116.07;;;108.35;;
16308;SDS011;8263;48.880;9.276;2022-12-22T06:20:07;115.43;;;107.72;;
16308;SDS011;8263;48.880;9.276;2022-12-22T06:22:33;114.35;;;106.75;;
16308;SDS011;8263;48.880;9.276;2022-12-22T06:25:00;114.22;;;106.53;;
16308;SDS011;8263;48.880;9.276;2022-12-22T06:27:26;115.45;;;107.78;;
16308;SDS011;8263;48.880;9.276;2022-12-22T06:29:53;114.70;;;107.10;;
16308;SDS011;8263;48.880;9.276;2022-12-22T06:32:19;113.03;;;105.53;;
16308;SDS011;8263;48.880;9.276;2022-12-22T06:34:46;114.65;;;107.05;;
16308;SDS011;8263;48.880;9.276;2022-12-22T06:37:14;116.15;;;108.45;;
16308;SDS011;8263;48.880;9.276;2022-12-22T06:39:40;114.25;;;106.65;;
16308;SDS011;8263;48.880;9.276;2022-12-22T06:42:07;116.50;;;108.72;;
16308;SDS011;8263;48.880;9.276;2022-12-22T06:44:51;115.30;;;107.65;;
16308;SDS011;8263;48.880;9.276;2022-12-22T06:47:19;115.60;;;107.90;;
16308;SDS011;8263;48.880;9.276;2022-12-22T06:49:46;115.57;;;107.82;;
16308;SDS011;8263;48.880;9.276;2022-12-22T06:52:14;115.65;;;107.95;;
16308;SDS011;8263;48.880;9.276;2022-12-22T06:54:40;114.30;;;106.72;;
16308;SDS011;8263;48.880;9.276;2022-12-22T06:57:07;114.70;;;107.00;;
16308;SDS011;8263;48.880;9.276;2022-12-22T06:59:33;114.13;;;106.57;;
16308;SDS011;8263;48.880;9.276;2022-12-22T07:02:00;114.70;;;107.10;;
16308;SDS011;8263;48.880;9.276;2022-12-22T07:04:26;117.20;;;109.40;;
16308;SDS011;8263;48.880;9.276;2022-12-22T07:06:54;113.90;;;106.35;;
16308;SDS011;8263;48.880;9.276;2022-12-22T07:09:22;115.38;;;107.70;;
16308;SDS011;8263;48.880;9.276;2022-12-22T07:11:49;115.57;;;107.88;;
16308;SDS011;8263;48.880;9.276;2022-12-22T07:14:15;116.82;;;108.00;;
16308;SDS011;8263;48.880;9.276;2022-12-22T07:16:42;114.93;;;107.32;;
16308;SDS011;8263;48.880;9.276;2022-12-22T07:19:08;114.35;;;106.75;;
16308;SDS011;8263;48.880;9.276;2022-12-22T07:21:34;114.60;;;107.00;;
16308;SDS011;8263;48.880;9.276;2022-12-22T07:24:01;113.00;;;105.53;;
16308;SDS011;8263;48.880;9.276;2022-12-22T07:26:29;111.22;;;103.93;;
16308;SDS011;8263;48.880;9.276;2022-12-22T07:28:57;114.32;;;106.72;;
16308;SDS011;8263;48.880;9.276;2022-12-22T07:31:24;114.78;;;107.18;;
16308;SDS011;8263;48.880;9.276;2022-12-22T07:33:50;115.40;;;107.75;;
16308;SDS011;8263;48.880;9.276;2022-12-22T07:36:18;114.13;;;106.60;;
16308;SDS011;8263;48.880;9.276;2022-12-22T07:38:45;113.25;;;105.75;;
16308;SDS011;8263;48.880;9.276;2022-12-22T07:41:12;115.03;;;107.40;;
16308;SDS011;8263;48.880;9.276;2022-12-22T07:43:58;115.13;;;107.43;;
16308;SDS011;8263;48.880;9.276;2022-12-22T07:46:26;114.70;;;107.10;;
16308;SDS011;8263;48.880;9.276;2022-12-22T07:48:53;117.57;;;109.40;;
16308;SDS011;8263;48.880;9.276;2022-12-22T07:51:37;115.85;;;107.57;;
16308;SDS011;8263;48.880;9.276;2022-12-22T07:54:05;114.40;;;106.80;;
16308;SDS011;8263;48.880;9.276;2022-12-22T07:56:31;113.47;;;105.80;;
16308;SDS011;8263;48.880;9.276;2022-12-22T07:59:00;113.88;;;106.35;;
16308;SDS011;8263;48.880;9.276;2022-12-22T08:01:26;116.15;;;108.28;;
16308;SDS011;8263;48.880;9.276;2022-12-22T08:03:52;115.15;;;107.45;;
16308;SDS011;8263;48.880;9.276;2022-12-22T08:06:19;116.18;;;108.38;;
16308;SDS011;8263;48.880;9.276;2022-12-22T08:08:46;116.22;;;108.53;;
16308;SDS011;8263;48.880;9.276;2022-12-22T08:11:12;112.72;;;105.28;;
16308;SDS011;8263;48.880;9.276;2022-12-22T08:13:39;113.93;;;106.40;;
16308;SDS011;8263;48.880;9.276;2022-12-22T08:16:09;113.70;;;106.18;;
16308;SDS011;8263;48.880;9.276;2022-12-22T08:18:36;115.40;;;107.75;;
16308;SDS011;8263;48.880;9.276;2022-12-22T08:21:03;113.70;;;105.72;;
16308;SDS011;8263;48.880;9.276;2022-12-22T08:23:29;114.45;;;106.85;;
16308;SDS011;8263;48.880;9.276;2022-12-22T08:25:57;114.05;;;106.50;;
16308;SDS011;8263;48.880;9.276;2022-12-22T08:28:26;115.13;;;107.22;;
16308;SDS011;8263;48.880;9.276;2022-12-22T08:30:53;113.43;;;105.93;;
16308;SDS011;8263;48.880;9.276;2022-12-22T08:33:21;114.95;;;107.35;;
16308;SDS011;8263;48.880;9.276;2022-12-22T08:35:47;114.93;;;107.32;;
16308;SDS011;8263;48.880;9.276;2022-12-22T08:38:14;116.13;;;108.43;;
16308;SDS011;8263;48.880;9.276;2022-12-22T08:40:41;115.15;;;107.47;;
16308;SDS011;8263;48.880;9.276;2022-12-22T08:43:08;112.35;;;104.93;;
16308;SDS011;8263;48.880;9.276;2022-12-22T08:45:35;110.55;;;103.28;;
16308;SDS011;8263;48.880;9.276;2022-12-22T08:48:03;112.93;;;105.43;;
16308;SDS011;8263;48.880;9.276;2022-12-22T08:50:31;114.75;;;107.05;;
16308;SDS011;8263;48.880;9.276;2022-12-22T08:53:00;113.95;;;106.45;;
16308;SDS011;8263;48.880;9.276;2022-12-22T08:55:26;111.50;;;104.10;;
16308;SDS011;8263;48.880;9.276;2022-12-22T08:57:53;116.03;;;107.93;;
16308;SDS011;8263;48.880;9.276;2022-12-22T09:00:20;115.53;;;107.88;;
16308;SDS011;8263;48.880;9.276;2022-12-22T09:02:46;114.60;;;106.95;;
16308;SDS011;8263;48.880;9.276;2022-12-22T09:05:13;116.13;;;108.32;;
16308;SDS011;8263;48.880;9.276;2022-12-22T09:07:41;113.75;;;106.25;;
16308;SDS011;8263;48.880;9.276;2022-12-22T09:10:11;113.53;;;106.03;;
16308;SDS011;8263;48.880;9.276;2022-12-22T09:12:38;113.72;;;106.20;;
16308;SDS011;8263;48.880;9.276;2022-12-22T09:15:05;113.68;;;106.18;;
16308;SDS011;8263;48.880;9.276;2022-12-22T09:17:32;113.53;;;106.03;;
16308;SDS011;8263;48.880;9.276;2022-12-22T09:20:00;114.53;;;106.78;;
16308;SDS011;8263;48.880;9.276;2022-12-22T09:22:29;112.88;;;105.43;;
16308;SDS011;8263;48.880;9.276;2022-12-22T09:24:57;112.97;;;105.35;;
16308;SDS011;8263;48.880;9.276;2022-12-22T09:27:24;113.32;;;105.85;;
16308;SDS011;8263;48.880;9.276;2022-12-22T09:29:50;115.03;;;107.28;;
16308;SDS011;8263;48.880;9.276;2022-12-22T09:32:17;115.95;;;107.95;;
16308;SDS011;8263;48.880;9.276;2022-12-22T09:34:43;115.88;;;107.57;;
16308;SDS011;8263;48.880;9.276;2022-12-22T09:37:10;114.55;;;105.88;;
16308;SDS011;8263;48.880;9.276;2022-12-22T09:39:39;112.85;;;105.43;;
16308;SDS011;8263;48.880;9.276;2022-12-22T09:42:10;112.13;;;104.72;;
16308;SDS011;8263;48.880;9.276;2022-12-22T09:44:39;113.80;;;106.28;;
16308;SDS011;8263;48.880;9.276;2022-12-22T09:47:11;111.53;;;104.18;;
16308;SDS011;8263;48.880;9.276;2022-12-22T09:49:40;114.75;;;106.95;;
16308;SDS011;8263;48.880;9.276;2022-12-22T09:52:16;114.40;;;106.80;;
16308;SDS011;8263;48.880;9.276;2022-12-22T09:54:46;111.55;;;104.22;;
16308;SDS011;8263;48.880;9.276;2022-12-22T09:57:14;111.55;;;104.25;;
16308;SDS011;8263;48.880;9.276;2022-12-22T09:59:40;110.13;;;102.82;;
16308;SDS011;8263;48.880;9.276;2022-12-22T10:02:09;112.65;;;105.15;;
16308;SDS011;8263;48.880;9.276;2022-12-22T10:04:49;113.22;;;105.35;;
16308;SDS011;8263;48.880;9.276;2022-12-22T10:07:21;113.32;;;105.82;;
16308;SDS011;8263;48.880;9.276;2022-12-22T10:09:50;112.90;;;105.30;;
16308;SDS011;8263;48.880;9.276;2022-12-22T10:12:18;113.65;;;105.60;;
16308;SDS011;8263;48.880;9.276;2022-12-22T10:14:46;114.05;;;106.55;;
16308;SDS011;8263;48.880;9.276;2022-12-22T10:17:13;111.63;;;104.30;;
16308;SDS011;8263;48.880;9.276;2022-12-22T10:19:40;113.38;;;105.80;;
16308;SDS011;8263;48.880;9.276;2022-12-22T10:22:10;113.22;;;105.75;;
16308;SDS011;8263;48.880;9.276;2022-12-22T10:24:43;111.72;;;104.28;;
16308;SDS011;8263;48.880;9.276;2022-12-22T10:27:10;112.18;;;104.65;;
16308;SDS011;8263;48.880;9.276;2022-12-22T10:29:38;114.65;;;107.03;;
16308;SDS011;8263;48.880;9.276;2022-12-22T10:32:10;113.55;;;105.85;;
16308;SDS011;8263;48.880;9.276;2022-12-22T10:34:42;113.55;;;106.05;;
16308;SDS011;8263;48.880;9.276;2022-12-22T10:37:27;113.72;;;106.10;;
16308;SDS011;8263;48.880;9.276;2022-12-22T10:39:55;111.22;;;103.90;;
16308;SDS011;8263;48.880;9.276;2022-12-22T10:42:21;111.93;;;104.53;;
16308;SDS011;8263;48.880;9.276;2022-12-22T10:44:49;114.07;;;106.55;;
16308;SDS011;8263;48.880;9.276;2022-12-22T10:47:16;112.20;;;104.80;;
16308;SDS011;8263;48.880;9.276;2022-12-22T10:49:44;112.78;;;105.28;;
16308;SDS011;8263;48.880;9.276;2022-12-22T10:52:13;110.10;;;102.90;;
16308;SDS011;8263;48.880;9.276;2022-12-22T10:54:41;112.72;;;105.32;;
16308;SDS011;8263;48.880;9.276;2022-12-22T10:57:19;115.30;;;107.55;;
16308;SDS011;8263;48.880;9.276;2022-12-22T10:59:48;114.47;;;106.93;;
16308;SDS011;8263;48.880;9.276;2022-12-22T11:02:24;111.28;;;103.93;;
16308;SDS011;8263;48.880;9.276;2022-12-22T11:04:52;112.68;;;105.28;;
16308;SDS011;8263;48.880;9.276;2022-12-22T11:07:19;113.80;;;106.30;;
16308;SDS011;8263;48.880;9.276;2022-12-22T11:09:46;110.55;;;103.25;;
16308;SDS011;8263;48.880;9.276;2022-12-22T11:12:15;110.55;;;103.30;;
16308;SDS011;8263;48.880;9.276;2022-12-22T11:14:46;112.97;;;105.53;;
16308;SDS011;8263;48.880;9.276;2022-12-22T11:17:16;113.07;;;105.35;;
16308;SDS011;8263;48.880;9.276;2022-12-22T11:19:51;113.57;;;106.07;;
16308;SDS011;8263;48.880;9.276;2022-12-22T11:22:25;111.20;;;103.90;;
16308;SDS011;8263;48.880;9.276;2022-12-22T11:24:56;110.90;;;103.60;;
16308;SDS011;8263;48.880;9.276;2022-12-22T11:27:27;111.63;;;104.22;;
16308;SDS011;8263;48.880;9.276;2022-12-22T11:30:00;112.07;;;104.68;;
16308;SDS011;8263;48.880;9.276;2022-12-22T11:32:32;113.78;;;106.25;;
16308;SDS011;8263;48.880;9.276;2022-12-22T11:35:04;113.28;;;105.80;;
16308;SDS011;8263;48.880;9.276;2022-12-22T11:37:35;112.10;;;104.70;;
16308;SDS011;8263;48.880;9.276;2022-12-22T11:40:13;113.40;;;105.93;;
16308;SDS011;8263;48.880;9.276;2022-12-22T11:42:47;112.63;;;105.22;;
16308;SDS011;8263;48.880;9.276;2022-12-22T11:45:21;108.63;;;101.53;;
16308;SDS011;8263;48.880;9.276;2022-12-22T11:47:51;108.60;;;101.47;;
16308;SDS011;8263;48.880;9.276;2022-12-22T11:50:27;112.10;;;104.70;;
16308;SDS011;8263;48.880;9.276;2022-12-22T11:53:00;110.13;;;102.93;;
16308;SDS011;8263;48.880;9.276;2022-12-22T11:55:32;112.18;;;104.68;;
16308;SDS011;8263;48.880;9.276;2022-12-22T11:58:09;110.85;;;103.55;;
16308;SDS011;8263;48.880;9.276;2022-12-22T12:00:44;110.05;;;102.82;;
16308;SDS011;8263;48.880;9.276;2022-12-22T12:08:39;110.55;;;103.25;;
16308;SDS011;8263;48.880;9.276;2022-12-22T12:11:10;111.95;;;104.60;;
16308;SDS011;8263;48.880;9.276;2022-12-22T12:13:43;111.32;;;103.70;;
16308;SDS011;8263;48.880;9.276;2022-12-22T12:16:14;112.43;;;104.93;;
16308;SDS011;8263;48.880;9.276;2022-12-22T12:18:55;112.30;;;104.90;;
16308;SDS011;8263;48.880;9.276;2022-12-22T12:21:36;110.20;;;102.90;;
16308;SDS011;8263;48.880;9.276;2022-12-22T12:26:53;112.05;;;104.68;;
16308;SDS011;8263;48.880;9.276;2022-12-22T12:29:23;113.50;;;106.00;;
16308;SDS011;8263;48.880;9.276;2022-12-22T12:31:52;111.75;;;104.43;;
16308;SDS011;8263;48.880;9.276;2022-12-22T12:34:21;109.32;;;102.15;;
16308;SDS011;8263;48.880;9.276;2022-12-22T12:36:49;110.35;;;103.10;;
16308;SDS011;8263;48.880;9.276;2022-12-22T12:39:19;112.22;;;104.82;;
16308;SDS011;8263;48.880;9.276;2022-12-22T12:41:54;112.45;;;105.05;;
16308;SDS011;8263;48.880;9.276;2022-12-22T12:44:24;109.95;;;102.75;;
16308;SDS011;8263;48.880;9.276;2022-12-22T12:46:55;110.03;;;102.82;;
16308;SDS011;8263;48.880;9.276;2022-12-22T12:52:08;110.85;;;103.55;;
16308;SDS011;8263;48.880;9.276;2022-12-22T12:54:36;110.60;;;103.20;;
16308;SDS011;8263;48.880;9.276;2022-12-22T12:57:20;110.63;;;103.18;;
16308;SDS011;8263;48.880;9.276;2022-12-22T12:59:49;110.90;;;103.60;;
16308;SDS011;8263;48.880;9.276;2022-12-22T13:02:35;111.45;;;104.05;;
16308;SDS011;8263;48.880;9.276;2022-12-22T13:08:09;109.25;;;102.00;;
16308;SDS011;8263;48.880;9.276;2022-12-22T13:10:39;111.75;;;104.45;;
16308;SDS011;8263;48.880;9.276;2022-12-22T13:13:10;113.03;;;105.43;;
16308;SDS011;8263;48.880;9.276;2022-12-22T13:15:37;111.50;;;104.20;;
16308;SDS011;8263;48.880;9.276;2022-12-22T13:18:06;110.63;;;103.32;;
16308;SDS011;8263;48.880;9.276;2022-12-22T13:20:35;108.13;;;101.05;;
16308;SDS011;8263;48.880;9.276;2022-12-22T13:23:03;112.15;;;104.35;;
16308;SDS011;8263;48.880;9.276;2022-12-22T13:25:35;109.15;;;101.90;;
16308;SDS011;8263;48.880;9.276;2022-12-22T13:28:04;109.90;;;102.22;;
16308;SDS011;8263;48.880;9.276;2022-12-22T13:30:33;109.90;;;102.70;;
16308;SDS011;8263;48.880;9.276;2022-12-22T13:32:59;111.45;;;104.07;;
16308;SDS011;8263;48.880;9.276;2022-12-22T13:35:28;109.93;;;102.72;;
16308;SDS011;8263;48.880;9.276;2022-12-22T13:37:55;107.85;;;100.82;;
16308;SDS011;8263;48.880;9.276;2022-12-22T13:40:22;110.15;;;102.85;;
16308;SDS011;8263;48.880;9.276;2022-12-22T13:42:50;109.18;;;102.05;;
16308;SDS011;8263;48.880;9.276;2022-12-22T13:45:21;108.65;;;101.55;;
16308;SDS011;8263;48.880;9.276;2022-12-22T13:47:51;109.68;;;102.47;;
16308;SDS011;8263;48.880;9.276;2022-12-22T13:50:19;108.35;;;101.25;;
16308;SDS011;8263;48.880;9.276;2022-12-22T13:52:46;108.63;;;101.47;;
16308;SDS011;8263;48.880;9.276;2022-12-22T13:55:14;107.68;;;100.68;;
16308;SDS011;8263;48.880;9.276;2022-12-22T13:57:41;108.40;;;101.32;;
16308;SDS011;8263;48.880;9.276;2022-12-22T14:00:16;106.25;;;99.32;;
16308;SDS011;8263;48.880;9.276;2022-12-22T14:02:43;108.05;;;100.95;;
16308;SDS011;8263;48.880;9.276;2022-12-22T14:05:12;110.15;;;102.85;;
16308;SDS011;8263;48.880;9.276;2022-12-22T14:07:39;106.65;;;99.68;;
16308;SDS011;8263;48.880;9.276;2022-12-22T14:10:06;107.75;;;100.75;;
16308;SDS011;8263;48.880;9.276;2022-12-22T14:12:34;107.20;;;100.20;;
16308;SDS011;8263;48.880;9.276;2022-12-22T14:15:06;107.03;;;99.97;;
16308;SDS011;8263;48.880;9.276;2022-12-22T14:17:34;110.47;;;103.25;;
16308;SDS011;8263;48.880;9.276;2022-12-22T14:20:13;109.45;;;102.32;;
16308;SDS011;8263;48.880;9.276;2022-12-22T14:22:43;109.85;;;102.68;;
16308;SDS011;8263;48.880;9.276;2022-12-22T14:25:12;108.63;;;101.43;;
16308;SDS011;8263;48.880;9.276;2022-12-22T14:27:41;109.30;;;102.07;;
16308;SDS011;8263;48.880;9.276;2022-12-22T14:30:14;109.07;;;101.88;;
16308;SDS011;8263;48.880;9.276;2022-12-22T14:32:42;107.63;;;100.57;;
16308;SDS011;8263;48.880;9.276;2022-12-22T14:35:20;108.28;;;100.85;;
16308;SDS011;8263;48.880;9.276;2022-12-22T14:37:50;108.57;;;100.82;;
16308;SDS011;8263;48.880;9.276;2022-12-22T14:40:28;109.95;;;102.65;;
16308;SDS011;8263;48.880;9.276;2022-12-22T14:42:55;109.47;;;102.25;;
16308;SDS011;8263;48.880;9.276;2022-12-22T14:45:22;109.15;;;102.00;;
16308;SDS011;8263;48.880;9.276;2022-12-22T14:47:49;110.72;;;103.40;;
16308;SDS011;8263;48.880;9.276;2022-12-22T14:50:16;109.47;;;102.15;;
16308;SDS011;8263;48.880;9.276;2022-12-22T14:52:43;106.15;;;99.15;;